Time;durP1;ratioP1;P1;durP2;ratioP2;P2;SDS_P1;SDS_P2;PMS_P1;PMS_P2;Temp;Humidity;BMP_temperature;BMP_pressure;BME280_temperature;BME280_humidity;BME280_pressure;Samples;Min_cycle;Max_cycle;Signal;HPM_P1;HPM_P2
2021/12/05 00:18:12;;;;;;;31.08;15.73;;;;;;;;;;4837277;29;20073;-78
2021/12/05 00:23:10;;;;;;;35.75;22.80;;;;;;;;;;4834825;29;20050;-78
2021/12/05 00:25:37;;;;;;;35.05;21.63;;;;;;;;;;4823716;29;20117;-78
2021/12/05 01:07:19;;;;;;;56.58;33.70;;;;;;;;;;4840543;29;20122;-78
2021/12/05 01:12:44;;;;;;;27.17;13.45;;;;;;;;;;4840690;29;20090;-78
2021/12/05 01:15:12;;;;;;;23.88;10.82;;;;;;;;;;4840608;29;20090;-78
2021/12/05 01:20:21;;;;;;;16.00;8.88;;;;;;;;;;4829572;29;20042;-78
2021/12/05 01:22:59;;;;;;;17.27;9.48;;;;;;;;;;4839277;29;20125;-78
2021/12/05 01:33:14;;;;;;;15.70;5.63;;;;;;;;;;4840473;29;20526;-77
2021/12/05 01:38:27;;;;;;;13.00;3.30;;;;;;;;;;4840128;29;20535;-78
2021/12/05 01:59:44;;;;;;;21.35;12.18;;;;;;;;;;4839401;29;20076;-77
2021/12/05 02:30:02;;;;;;;16.95;8.02;;;;;;;;;;4825239;29;20057;-77
2021/12/05 02:45:28;;;;;;;18.83;10.85;;;;;;;;;;4839093;29;20149;-77
2021/12/05 02:47:54;;;;;;;20.60;13.55;;;;;;;;;;4839539;29;20046;-77
2021/12/05 02:50:23;;;;;;;21.35;12.10;;;;;;;;;;4838987;29;20418;-77
2021/12/05 02:52:52;;;;;;;18.10;9.88;;;;;;;;;;4839444;29;20053;-77
2021/12/05 02:55:25;;;;;;;15.98;9.70;;;;;;;;;;4839022;29;20384;-77
2021/12/05 02:57:56;;;;;;;17.08;7.90;;;;;;;;;;4839381;29;20042;-77
2021/12/05 03:01:05;;;;;;;15.23;5.93;;;;;;;;;;4838048;29;20053;-77
2021/12/05 03:03:19;;;;;;;12.25;4.50;;;;;;;;;;4836828;29;20078;-77
2021/12/05 03:05:51;;;;;;;17.48;6.70;;;;;;;;;;4832987;29;20034;-77
2021/12/05 03:08:17;;;;;;;9.30;2.55;;;;;;;;;;4824403;29;20034;-77
2021/12/05 03:10:43;;;;;;;9.27;1.55;;;;;;;;;;4822129;29;20488;-77
2021/12/05 03:13:09;;;;;;;4.53;1.00;;;;;;;;;;4838892;29;20061;-77
2021/12/05 03:15:36;;;;;;;6.65;1.02;;;;;;;;;;4838779;29;20145;-77
2021/12/05 03:18:02;;;;;;;5.85;1.20;;;;;;;;;;4836650;29;20438;-77
2021/12/05 03:20:28;;;;;;;8.70;1.05;;;;;;;;;;4820342;29;20045;-77
2021/12/05 03:22:54;;;;;;;5.25;0.80;;;;;;;;;;4837333;29;20041;-77
2021/12/05 03:25:20;;;;;;;9.98;0.90;;;;;;;;;;4839008;29;20050;-77
2021/12/05 03:27:47;;;;;;;4.07;0.70;;;;;;;;;;4838504;29;20079;-77
2021/12/05 03:30:14;;;;;;;6.25;1.10;;;;;;;;;;4838168;29;20544;-77
2021/12/05 03:32:42;;;;;;;4.60;1.33;;;;;;;;;;4838432;29;20495;-77
2021/12/05 03:35:09;;;;;;;8.07;1.55;;;;;;;;;;4821523;29;20052;-77
2021/12/05 03:37:36;;;;;;;6.38;1.52;;;;;;;;;;4832077;29;20035;-77
2021/12/05 03:40:03;;;;;;;11.15;1.58;;;;;;;;;;4828510;29;20042;-77
2021/12/05 03:42:29;;;;;;;6.28;1.55;;;;;;;;;;4822324;29;20046;-77
2021/12/05 03:44:55;;;;;;;7.25;1.02;;;;;;;;;;4821976;29;20068;-77
2021/12/05 03:47:21;;;;;;;6.20;1.00;;;;;;;;;;4822031;29;20470;-78
2021/12/05 03:49:47;;;;;;;6.25;1.30;;;;;;;;;;4838078;29;20329;-77
2021/12/05 03:52:15;;;;;;;7.20;1.27;;;;;;;;;;4822027;29;20548;-77
2021/12/05 03:54:42;;;;;;;9.98;1.52;;;;;;;;;;4838097;29;20034;-77
2021/12/05 03:57:08;;;;;;;6.13;1.52;;;;;;;;;;4822552;29;20052;-77
2021/12/05 03:59:34;;;;;;;6.00;1.30;;;;;;;;;;4838277;29;20053;-76
2021/12/05 04:02:02;;;;;;;6.68;1.17;;;;;;;;;;4837498;29;20046;-77
2021/12/05 04:04:28;;;;;;;3.15;0.82;;;;;;;;;;4821979;29;20094;-78
2021/12/05 04:06:54;;;;;;;4.72;1.20;;;;;;;;;;4821659;29;20044;-76
2021/12/05 04:09:20;;;;;;;6.32;1.17;;;;;;;;;;4838634;29;20034;-77
2021/12/05 04:11:56;;;;;;;7.45;1.48;;;;;;;;;;4837961;29;20121;-77
2021/12/05 04:14:22;;;;;;;6.90;1.60;;;;;;;;;;4841932;29;20078;-76
2021/12/05 04:16:49;;;;;;;8.02;2.00;;;;;;;;;;4841138;29;20049;-77
2021/12/05 04:19:15;;;;;;;5.30;1.05;;;;;;;;;;4841630;29;20835;-77
2021/12/05 04:21:42;;;;;;;6.95;1.10;;;;;;;;;;4830930;29;20477;-77
2021/12/05 04:24:09;;;;;;;7.60;1.90;;;;;;;;;;4822971;29;20035;-77
2021/12/05 04:26:36;;;;;;;6.45;2.58;;;;;;;;;;4830818;29;20049;-77
2021/12/05 04:29:03;;;;;;;5.70;1.90;;;;;;;;;;4831550;29;20041;-77
2021/12/05 04:31:29;;;;;;;6.18;1.85;;;;;;;;;;4833849;29;20045;-77
2021/12/05 04:33:55;;;;;;;10.05;2.30;;;;;;;;;;4841226;29;20069;-77
2021/12/05 04:36:21;;;;;;;7.47;2.17;;;;;;;;;;4841057;29;20046;-77
2021/12/05 04:38:47;;;;;;;8.45;1.65;;;;;;;;;;4824117;29;20038;-76
2021/12/05 04:41:13;;;;;;;7.53;2.10;;;;;;;;;;4837407;29;20034;-77
2021/12/05 04:43:39;;;;;;;8.75;2.67;;;;;;;;;;4822847;29;20083;-77
2021/12/05 04:46:07;;;;;;;12.80;2.85;;;;;;;;;;4824287;29;20541;-76
2021/12/05 04:48:33;;;;;;;12.75;3.47;;;;;;;;;;4840633;29;20040;-77
2021/12/05 04:50:59;;;;;;;9.73;2.15;;;;;;;;;;4841242;29;20061;-76
2021/12/05 04:53:27;;;;;;;5.72;2.13;;;;;;;;;;4840509;29;20117;-77
2021/12/05 04:55:54;;;;;;;9.55;2.10;;;;;;;;;;4818071;29;20037;-77
2021/12/05 04:58:20;;;;;;;7.50;1.83;;;;;;;;;;4836662;29;20042;-77
2021/12/05 05:00:47;;;;;;;10.07;2.28;;;;;;;;;;4836988;29;20054;-77
2021/12/05 05:03:13;;;;;;;9.68;2.75;;;;;;;;;;4824252;29;20042;-77
2021/12/05 05:05:46;;;;;;;7.53;2.55;;;;;;;;;;4840635;29;20647;-77
2021/12/05 05:08:12;;;;;;;8.10;2.42;;;;;;;;;;4837207;29;20038;-76
2021/12/05 05:10:38;;;;;;;8.77;3.15;;;;;;;;;;4836340;29;20044;-77
2021/12/05 05:13:05;;;;;;;9.68;2.92;;;;;;;;;;4833511;29;20069;-76
2021/12/05 05:15:31;;;;;;;7.93;2.78;;;;;;;;;;4828947;29;20062;-76
2021/12/05 05:17:58;;;;;;;5.75;2.08;;;;;;;;;;4833372;29;20433;-77
2021/12/05 05:20:32;;;;;;;9.20;1.83;;;;;;;;;;4828390;29;20034;-76
2021/12/05 05:44:37;;;;;;;8.50;2.83;;;;;;;;;;4836848;29;20095;-77
2021/12/05 05:50:09;;;;;;;8.55;2.58;;;;;;;;;;4830929;29;20083;-77
2021/12/05 05:52:28;;;;;;;;;;;;;;;;;;4821531;29;20054;-76
2021/12/05 05:54:57;;;;;;;6.15;1.38;;;;;;;;;;4821479;29;20310;-77
2021/12/05 06:00:29;;;;;;;10.57;2.90;;;;;;;;;;4829260;29;20062;-77
2021/12/05 06:05:27;;;;;;;9.38;3.63;;;;;;;;;;4829399;29;19975;-77
2021/12/05 06:07:53;;;;;;;13.90;3.75;;;;;;;;;;4836493;29;20077;-76
2021/12/05 06:10:22;;;;;;;10.82;2.47;;;;;;;;;;4822123;29;20041;-77
2021/12/05 06:12:48;;;;;;;9.48;2.50;;;;;;;;;;4822991;29;20046;-77
2021/12/05 06:15:15;;;;;;;5.90;2.08;;;;;;;;;;4818850;29;20030;-77
2021/12/05 06:17:42;;;;;;;7.93;2.20;;;;;;;;;;4821168;29;20070;-77
2021/12/05 06:20:09;;;;;;;11.73;2.13;;;;;;;;;;4836782;29;20079;-77
2021/12/05 06:22:36;;;;;;;6.68;1.73;;;;;;;;;;4830737;29;20046;-77
2021/12/05 06:25:02;;;;;;;15.93;6.65;;;;;;;;;;4833772;29;20041;-76
2021/12/05 06:27:28;;;;;;;11.40;3.75;;;;;;;;;;4826731;29;20046;-77
2021/12/05 06:30:05;;;;;;;14.80;5.57;;;;;;;;;;4830714;29;20598;-77
2021/12/05 06:40:50;;;;;;;9.98;4.20;;;;;;;;;;4792643;29;20042;-77
2021/12/05 06:46:13;;;;;;;8.32;3.90;;;;;;;;;;4818367;29;20034;-77
2021/12/05 06:48:42;;;;;;;8.35;3.60;;;;;;;;;;4833433;29;20037;-76
2021/12/05 06:51:09;;;;;;;6.00;2.13;;;;;;;;;;4839000;29;20865;-77
2021/12/05 06:53:35;;;;;;;8.05;2.35;;;;;;;;;;4827470;29;20037;-76
2021/12/05 06:56:01;;;;;;;7.97;1.77;;;;;;;;;;4839059;29;20044;-76
2021/12/05 06:58:27;;;;;;;7.90;1.88;;;;;;;;;;4826956;29;20048;-77
2021/12/05 07:00:53;;;;;;;7.13;2.53;;;;;;;;;;4844987;29;20060;-76
2021/12/05 07:03:20;;;;;;;10.57;4.28;;;;;;;;;;4837531;29;20096;-77
2021/12/05 07:06:10;;;;;;;15.00;5.97;;;;;;;;;;4835894;29;20552;-77
2021/12/05 07:08:39;;;;;;;10.18;4.80;;;;;;;;;;4824002;29;20034;-76
2021/12/05 07:11:17;;;;;;;11.73;5.70;;;;;;;;;;4823285;29;20039;-76
2021/12/05 07:14:49;;;;;;;11.07;5.60;;;;;;;;;;4839040;29;20090;-76
2021/12/05 07:22:52;;;;;;;9.32;4.32;;;;;;;;;;4838868;29;20549;-77
2021/12/05 07:40:31;;;;;;;18.92;8.43;;;;;;;;;;4837355;29;20053;-77
2021/12/05 07:43:07;;;;;;;13.68;5.97;;;;;;;;;;4838641;29;20037;-77
2021/12/05 07:45:44;;;;;;;13.63;4.00;;;;;;;;;;4828844;29;20605;-77
2021/12/05 07:48:12;;;;;;;9.70;4.32;;;;;;;;;;4837339;29;20041;-77
2021/12/05 07:50:47;;;;;;;11.48;5.70;;;;;;;;;;4836412;29;20170;-77
2021/12/05 07:53:22;;;;;;;13.90;7.43;;;;;;;;;;4836437;29;20059;-77
2021/12/05 07:55:51;;;;;;;18.02;9.60;;;;;;;;;;4837088;29;20171;-77
2021/12/05 08:14:46;;;;;;;12.75;7.05;;;;;;;;;;4838580;29;20133;-77
2021/12/05 08:17:17;;;;;;;10.93;4.75;;;;;;;;;;4823407;29;20487;-77
2021/12/05 08:19:43;;;;;;;9.38;3.75;;;;;;;;;;4830836;29;20033;-77
2021/12/05 08:22:09;;;;;;;9.82;3.20;;;;;;;;;;4834676;29;20081;-77
2021/12/05 08:24:38;;;;;;;11.27;4.15;;;;;;;;;;4836936;29;20033;-77
2021/12/05 08:27:06;;;;;;;9.23;4.90;;;;;;;;;;4824637;29;20727;-77
2021/12/05 08:29:57;;;;;;;12.95;6.57;;;;;;;;;;4841212;29;20033;-77
2021/12/05 08:32:51;;;;;;;11.82;6.22;;;;;;;;;;4831320;29;20046;-76
2021/12/05 08:35:44;;;;;;;11.48;4.97;;;;;;;;;;4828821;29;20030;-76
2021/12/05 08:38:55;;;;;;;17.20;7.45;;;;;;;;;;4835480;29;20057;-76
2021/12/05 09:30:31;;;;;;;9.93;4.20;;;;;;;;;;4825453;29;20037;-78
2021/12/05 10:11:10;;;;;;;8.27;3.30;;;;;;;;;;4839390;29;20048;-77
2021/12/05 10:16:44;;;;;;;10.45;3.65;;;;;;;;;;4838895;29;20098;-78
2021/12/05 10:38:11;;;;;;;8.75;4.35;;;;;;;;;;4830665;29;20497;-77
2021/12/05 10:40:44;;;;;;;14.90;9.80;;;;;;;;;;4826002;29;20053;-77
2021/12/05 10:43:14;;;;;;;9.65;5.05;;;;;;;;;;4824687;29;20046;-77
2021/12/05 10:45:45;;;;;;;7.75;3.50;;;;;;;;;;4835358;29;20080;-77
2021/12/05 10:48:32;;;;;;;9.82;3.70;;;;;;;;;;4829943;29;20513;-78
2021/12/05 10:51:00;;;;;;;8.20;3.88;;;;;;;;;;4828895;29;20046;-77
2021/12/05 10:53:26;;;;;;;10.20;4.22;;;;;;;;;;4822390;29;20046;-78
2021/12/05 10:55:58;;;;;;;7.70;2.30;;;;;;;;;;4835813;29;20097;-77
2021/12/05 10:58:29;;;;;;;7.28;2.40;;;;;;;;;;4829527;29;20050;-77
2021/12/05 11:01:04;;;;;;;9.77;3.15;;;;;;;;;;4834224;29;20050;-77
2021/12/05 11:03:30;;;;;;;21.63;13.07;;;;;;;;;;4826451;29;20034;-77
2021/12/05 11:05:56;;;;;;;10.63;5.40;;;;;;;;;;4831551;29;20046;-77
2021/12/05 11:08:31;;;;;;;7.80;3.60;;;;;;;;;;4828667;29;20070;-78
2021/12/05 11:11:11;;;;;;;6.18;2.30;;;;;;;;;;4830220;29;20453;-78
2021/12/05 11:13:38;;;;;;;9.52;2.90;;;;;;;;;;4828241;29;20043;-77
2021/12/05 11:16:24;;;;;;;6.75;2.55;;;;;;;;;;4837375;29;20037;-78
2021/12/05 11:18:50;;;;;;;7.28;2.30;;;;;;;;;;4830566;29;20038;-77
2021/12/05 11:21:25;;;;;;;5.90;2.22;;;;;;;;;;4834014;29;20043;-77
2021/12/05 11:24:26;;;;;;;4.18;1.90;;;;;;;;;;4834048;29;20022;-77
2021/12/05 11:27:01;;;;;;;7.18;1.90;;;;;;;;;;4833765;29;20038;-77
2021/12/05 11:29:39;;;;;;;4.57;1.83;;;;;;;;;;4832993;29;20046;-77
2021/12/05 11:32:10;;;;;;;8.70;1.98;;;;;;;;;;4836040;29;20034;-76
2021/12/05 11:34:36;;;;;;;5.50;2.13;;;;;;;;;;4832786;29;20037;-76
2021/12/05 11:37:02;;;;;;;9.77;2.10;;;;;;;;;;4832551;29;20039;-77
2021/12/05 11:39:28;;;;;;;8.20;2.15;;;;;;;;;;4833075;29;20465;-77
2021/12/05 11:41:56;;;;;;;8.70;1.83;;;;;;;;;;4829077;29;20042;-77
2021/12/05 11:44:22;;;;;;;7.75;2.42;;;;;;;;;;4831117;29;20041;-76
2021/12/05 11:46:48;;;;;;;4.90;1.25;;;;;;;;;;4837503;29;20113;-77
2021/12/05 11:49:20;;;;;;;6.03;1.80;;;;;;;;;;4829328;29;20117;-77
2021/12/05 11:51:52;;;;;;;11.68;2.83;;;;;;;;;;4833586;29;20053;-77
2021/12/05 11:54:21;;;;;;;6.60;2.53;;;;;;;;;;4835851;29;20380;-77
2021/12/05 11:56:52;;;;;;;5.63;1.65;;;;;;;;;;4838888;29;20034;-77
2021/12/05 11:59:22;;;;;;;6.22;1.30;;;;;;;;;;4839058;29;20054;-76
2021/12/05 12:01:48;;;;;;;7.38;1.95;;;;;;;;;;4834978;29;20038;-76
2021/12/05 12:04:16;;;;;;;6.22;1.40;;;;;;;;;;4829558;29;20082;-77
2021/12/05 12:06:42;;;;;;;4.53;0.85;;;;;;;;;;4820907;29;20836;-77
2021/12/05 12:09:08;;;;;;;6.13;1.10;;;;;;;;;;4824602;29;20041;-77
2021/12/05 12:11:34;;;;;;;5.05;0.80;;;;;;;;;;4830423;29;20381;-77
2021/12/05 12:14:00;;;;;;;5.40;0.95;;;;;;;;;;4834145;29;20528;-77
2021/12/05 12:16:33;;;;;;;5.50;1.00;;;;;;;;;;4828474;29;20501;-76
2021/12/05 12:18:59;;;;;;;5.68;1.05;;;;;;;;;;4835216;29;20120;-76
2021/12/05 12:21:27;;;;;;;3.78;0.70;;;;;;;;;;4838110;29;20038;-77
2021/12/05 12:23:57;;;;;;;3.97;1.05;;;;;;;;;;4825085;29;20070;-77
2021/12/05 12:26:24;;;;;;;5.57;1.60;;;;;;;;;;4830928;29;20117;-76
2021/12/05 12:28:51;;;;;;;7.32;2.28;;;;;;;;;;4835128;29;20038;-76
2021/12/05 12:31:25;;;;;;;6.78;2.17;;;;;;;;;;4834260;29;20545;-77
2021/12/05 12:33:53;;;;;;;5.88;2.25;;;;;;;;;;4834576;29;20033;-77
2021/12/05 12:36:37;;;;;;;4.82;1.92;;;;;;;;;;4841123;29;20140;-77
2021/12/05 12:39:05;;;;;;;7.78;2.38;;;;;;;;;;4829010;29;20042;-77
2021/12/05 12:41:31;;;;;;;6.53;1.63;;;;;;;;;;4835978;29;20042;-77
2021/12/05 12:44:00;;;;;;;5.80;1.83;;;;;;;;;;4833687;29;20061;-76
2021/12/05 12:46:31;;;;;;;5.38;1.63;;;;;;;;;;4833254;29;20037;-76
2021/12/05 12:48:59;;;;;;;4.60;1.48;;;;;;;;;;4837254;29;20037;-77
2021/12/05 12:51:34;;;;;;;8.88;1.58;;;;;;;;;;4829726;29;20117;-77
2021/12/05 12:54:02;;;;;;;7.40;2.47;;;;;;;;;;4836316;29;20086;-77
2021/12/05 12:56:28;;;;;;;11.55;3.05;;;;;;;;;;4837913;29;20061;-77
2021/12/05 12:59:02;;;;;;;9.98;3.25;;;;;;;;;;4832015;29;20034;-76
2021/12/05 13:12:44;;;;;;;8.02;3.80;;;;;;;;;;4834106;29;20431;-77
2021/12/05 13:15:16;;;;;;;9.75;4.47;;;;;;;;;;4826772;29;20039;-76
2021/12/05 13:17:42;;;;;;;10.25;3.95;;;;;;;;;;4834787;29;20045;-77
2021/12/05 13:20:09;;;;;;;11.32;5.00;;;;;;;;;;4829141;29;20042;-77
2021/12/05 13:22:55;;;;;;;6.97;4.43;;;;;;;;;;4824072;29;20045;-77
2021/12/05 13:25:21;;;;;;;14.07;8.15;;;;;;;;;;4825390;29;20069;-76
2021/12/05 13:27:47;;;;;;;15.30;10.18;;;;;;;;;;4831336;29;20038;-77
2021/12/05 13:30:27;;;;;;;12.75;7.00;;;;;;;;;;4839241;29;20477;-76
2021/12/05 13:33:12;;;;;;;15.77;7.88;;;;;;;;;;4834899;29;20038;-76
2021/12/05 13:35:40;;;;;;;17.27;9.05;;;;;;;;;;4835765;29;20042;-76
2021/12/05 13:38:06;;;;;;;18.95;8.95;;;;;;;;;;4830052;29;20496;-77
2021/12/05 13:40:33;;;;;;;18.23;9.52;;;;;;;;;;4827502;29;20049;-77
2021/12/05 13:43:09;;;;;;;20.42;11.73;;;;;;;;;;4821896;29;20042;-77
2021/12/05 13:45:39;;;;;;;16.52;10.70;;;;;;;;;;4837669;29;20022;-76
2021/12/05 13:48:08;;;;;;;19.70;11.48;;;;;;;;;;4839790;29;20042;-77
2021/12/05 13:50:34;;;;;;;19.70;10.18;;;;;;;;;;4830577;29;20086;-77
2021/12/05 13:53:00;;;;;;;19.73;8.48;;;;;;;;;;4821504;29;20790;-77
2021/12/05 13:55:43;;;;;;;14.35;7.28;;;;;;;;;;4828033;29;20038;-77
2021/12/05 13:58:30;;;;;;;11.18;5.85;;;;;;;;;;4828128;29;20581;-77
2021/12/05 14:00:59;;;;;;;10.90;6.18;;;;;;;;;;4833540;29;20077;-76
2021/12/05 14:03:54;;;;;;;11.88;7.40;;;;;;;;;;4839563;29;20045;-77
2021/12/05 14:06:29;;;;;;;11.77;5.95;;;;;;;;;;4828976;29;20072;-76
2021/12/05 14:08:59;;;;;;;14.07;8.60;;;;;;;;;;4839239;29;20418;-77
2021/12/05 14:11:25;;;;;;;15.13;8.45;;;;;;;;;;4833163;29;20045;-77
2021/12/05 14:13:51;;;;;;;13.35;8.80;;;;;;;;;;4832092;29;20356;-77
2021/12/05 14:16:18;;;;;;;15.20;10.43;;;;;;;;;;4836950;29;20121;-76
2021/12/05 14:18:44;;;;;;;18.88;11.35;;;;;;;;;;4819079;29;20388;-77
2021/12/05 14:21:14;;;;;;;11.23;6.82;;;;;;;;;;4831537;29;20034;-76
2021/12/05 14:23:46;;;;;;;11.07;7.28;;;;;;;;;;4833076;29;20042;-77
2021/12/05 14:26:14;;;;;;;11.15;7.78;;;;;;;;;;4831966;29;20044;-77
2021/12/05 14:28:40;;;;;;;17.27;8.57;;;;;;;;;;4826910;29;20034;-76
2021/12/05 14:31:06;;;;;;;17.58;9.10;;;;;;;;;;4832343;29;20025;-77
2021/12/05 14:33:46;;;;;;;78.03;38.42;;;;;;;;;;4830943;29;20426;-77
2021/12/05 14:36:29;;;;;;;16.80;9.52;;;;;;;;;;4832915;29;20059;-76
2021/12/05 14:39:05;;;;;;;13.82;9.27;;;;;;;;;;4829421;29;20087;-77
2021/12/05 14:41:32;;;;;;;16.30;8.98;;;;;;;;;;4836014;29;20048;-77
2021/12/05 14:44:00;;;;;;;12.93;8.60;;;;;;;;;;4831775;29;20053;-77
2021/12/05 14:46:26;;;;;;;14.13;9.98;;;;;;;;;;4830845;29;20049;-76
2021/12/05 14:49:02;;;;;;;19.90;11.88;;;;;;;;;;4836796;29;20062;-77
2021/12/05 14:51:32;;;;;;;15.43;9.55;;;;;;;;;;4830525;29;20128;-77
2021/12/05 14:53:58;;;;;;;18.42;12.23;;;;;;;;;;4829256;29;20038;-77
2021/12/05 14:56:27;;;;;;;21.08;13.25;;;;;;;;;;4834163;29;20045;-76
2021/12/05 14:59:10;;;;;;;17.80;11.80;;;;;;;;;;4815138;29;20117;-77
2021/12/05 15:01:38;;;;;;;16.88;12.35;;;;;;;;;;4830039;29;20089;-77
2021/12/05 15:04:06;;;;;;;16.45;12.35;;;;;;;;;;4838437;29;20034;-77
2021/12/05 15:06:39;;;;;;;20.15;14.50;;;;;;;;;;4838534;29;20038;-76
2021/12/05 15:09:06;;;;;;;21.35;13.55;;;;;;;;;;4838142;29;20137;-77
2021/12/05 15:11:33;;;;;;;21.27;14.73;;;;;;;;;;4839048;29;20061;-76
2021/12/05 15:14:06;;;;;;;27.77;18.83;;;;;;;;;;4830533;29;20029;-76
2021/12/05 15:16:32;;;;;;;23.55;15.25;;;;;;;;;;4829589;29;20046;-77
2021/12/05 15:18:59;;;;;;;23.05;15.77;;;;;;;;;;4829299;29;20042;-76
2021/12/05 15:21:27;;;;;;;21.80;14.38;;;;;;;;;;4815008;29;20043;-77
2021/12/05 15:23:54;;;;;;;18.20;14.65;;;;;;;;;;4832859;29;20060;-76
2021/12/05 15:26:20;;;;;;;19.02;12.48;;;;;;;;;;4837786;29;20037;-77
2021/12/05 15:28:47;;;;;;;47.70;30.88;;;;;;;;;;4833123;29;20385;-76
2021/12/05 15:31:13;;;;;;;63.90;38.22;;;;;;;;;;4821187;29;20045;-76
2021/12/05 15:33:39;;;;;;;50.22;33.25;;;;;;;;;;4839067;29;20496;-76
2021/12/05 15:36:06;;;;;;;59.33;38.28;;;;;;;;;;4827032;29;20048;-77
2021/12/05 15:38:34;;;;;;;35.25;24.63;;;;;;;;;;4820495;29;20718;-77
2021/12/05 15:41:05;;;;;;;24.48;17.73;;;;;;;;;;4818584;29;20041;-77
2021/12/05 15:43:32;;;;;;;29.20;19.67;;;;;;;;;;4819944;29;20039;-77
2021/12/05 15:45:58;;;;;;;20.58;16.17;;;;;;;;;;4826381;29;20034;-77
2021/12/05 15:48:29;;;;;;;24.17;16.83;;;;;;;;;;4833915;29;20049;-77
2021/12/05 15:50:56;;;;;;;27.83;19.58;;;;;;;;;;4838628;29;20026;-76
2021/12/05 15:53:23;;;;;;;23.52;16.83;;;;;;;;;;4837491;29;20716;-76
2021/12/05 15:55:52;;;;;;;23.67;15.82;;;;;;;;;;4820401;29;20039;-77
2021/12/05 15:58:30;;;;;;;27.83;20.73;;;;;;;;;;4829600;29;20157;-77
2021/12/05 16:01:02;;;;;;;31.55;20.60;;;;;;;;;;4834395;29;20057;-76
2021/12/05 16:03:28;;;;;;;;;;;;;;;;;;4830076;29;20049;-76
2021/12/05 16:05:55;;;;;;;31.77;22.42;;;;;;;;;;4834384;29;19917;-76
2021/12/05 16:08:21;;;;;;;31.60;22.88;;;;;;;;;;4820422;29;20083;-77
2021/12/05 16:10:57;;;;;;;29.77;21.70;;;;;;;;;;4824842;29;20030;-76
2021/12/05 16:13:25;;;;;;;35.25;26.25;;;;;;;;;;4828891;29;20066;-77
2021/12/05 16:15:52;;;;;;;33.10;24.38;;;;;;;;;;4841247;29;20045;-77
2021/12/05 16:18:19;;;;;;;35.53;26.73;;;;;;;;;;4824483;29;20038;-76
2021/12/05 16:20:46;;;;;;;29.88;24.13;;;;;;;;;;4833758;29;20134;-76
2021/12/05 16:23:16;;;;;;;34.70;22.88;;;;;;;;;;4839331;29;20042;-77
2021/12/05 16:25:48;;;;;;;34.67;24.35;;;;;;;;;;4836506;29;20084;-76
2021/12/05 16:28:14;;;;;;;34.20;26.38;;;;;;;;;;4823297;29;20139;-77
2021/12/05 16:30:46;;;;;;;38.70;27.23;;;;;;;;;;4830372;29;20059;-76
2021/12/05 16:33:13;;;;;;;40.65;25.38;;;;;;;;;;4837356;29;20042;-76
2021/12/05 16:35:41;;;;;;;45.28;30.88;;;;;;;;;;4828997;29;20038;-76
2021/12/05 16:38:37;;;;;;;42.13;25.98;;;;;;;;;;4841098;29;20069;-76
2021/12/05 16:41:14;;;;;;;30.35;20.48;;;;;;;;;;4819618;29;20045;-77
2021/12/05 16:43:49;;;;;;;25.13;16.75;;;;;;;;;;4841091;29;20026;-77
2021/12/05 16:46:24;;;;;;;46.38;25.98;;;;;;;;;;4826244;29;20042;-76
2021/12/05 16:48:50;;;;;;;50.72;28.13;;;;;;;;;;4825749;29;20571;-76
2021/12/05 16:51:22;;;;;;;17.65;8.93;;;;;;;;;;4838065;29;20489;-77
2021/12/05 16:53:50;;;;;;;16.23;8.85;;;;;;;;;;4823455;29;20563;-76
2021/12/05 16:56:33;;;;;;;14.98;5.70;;;;;;;;;;4840776;29;20085;-77
2021/12/05 16:59:06;;;;;;;16.40;8.00;;;;;;;;;;4833032;29;20540;-77
2021/12/05 17:01:32;;;;;;;18.67;9.57;;;;;;;;;;4824757;29;20043;-76
2021/12/05 17:03:58;;;;;;;16.95;8.48;;;;;;;;;;4838514;29;20081;-76
2021/12/05 17:06:24;;;;;;;26.70;18.35;;;;;;;;;;4839920;29;20061;-77
2021/12/05 17:08:50;;;;;;;26.63;16.70;;;;;;;;;;4835220;29;20144;-77
2021/12/05 17:11:18;;;;;;;23.35;15.52;;;;;;;;;;4834922;29;20030;-77
2021/12/05 17:13:44;;;;;;;32.83;20.45;;;;;;;;;;4840517;29;20089;-77
2021/12/05 17:16:12;;;;;;;35.67;22.05;;;;;;;;;;4840409;29;20713;-77
2021/12/05 17:18:41;;;;;;;34.85;21.25;;;;;;;;;;4836657;29;20124;-77
2021/12/05 17:21:16;;;;;;;32.10;17.55;;;;;;;;;;4827008;29;20037;-77
2021/12/05 17:23:44;;;;;;;27.98;14.75;;;;;;;;;;4829194;29;20048;-77
2021/12/05 17:26:12;;;;;;;33.33;15.18;;;;;;;;;;4838211;29;20037;-76
2021/12/05 17:28:40;;;;;;;29.02;15.27;;;;;;;;;;4848380;29;20037;-77
2021/12/05 17:31:09;;;;;;;26.30;15.65;;;;;;;;;;4840280;29;20121;-77
2021/12/05 17:33:36;;;;;;;31.55;18.10;;;;;;;;;;4847903;29;20068;-77
2021/12/05 17:36:20;;;;;;;21.70;12.98;;;;;;;;;;4828477;29;20041;-76
2021/12/05 17:38:47;;;;;;;23.02;13.70;;;;;;;;;;4816055;29;20564;-77
2021/12/05 17:41:13;;;;;;;25.38;15.45;;;;;;;;;;4820047;29;20040;-76
2021/12/05 17:43:39;;;;;;;21.08;13.07;;;;;;;;;;4827085;29;20073;-77
2021/12/05 17:46:05;;;;;;;28.13;21.10;;;;;;;;;;4835795;29;20156;-77
2021/12/05 17:48:31;;;;;;;29.77;19.95;;;;;;;;;;4834091;29;20045;-76
2021/12/05 17:50:57;;;;;;;24.63;15.48;;;;;;;;;;4822935;29;20034;-77
2021/12/05 17:53:30;;;;;;;24.85;14.95;;;;;;;;;;4837821;29;20094;-77
2021/12/05 17:56:02;;;;;;;23.33;14.50;;;;;;;;;;4826586;29;20053;-76
2021/12/05 18:03:55;;;;;;;23.23;13.93;;;;;;;;;;4833382;29;20061;-76
2021/12/05 18:06:22;;;;;;;20.27;13.27;;;;;;;;;;4830679;29;20041;-76
2021/12/05 18:08:48;;;;;;;22.38;14.52;;;;;;;;;;4832069;29;20086;-76
2021/12/05 18:11:20;;;;;;;21.05;13.45;;;;;;;;;;4839413;29;20061;-76
2021/12/05 18:13:51;;;;;;;22.63;14.35;;;;;;;;;;4833484;29;20030;-77
2021/12/05 18:16:23;;;;;;;19.65;12.75;;;;;;;;;;4828608;29;20038;-77
2021/12/05 18:18:49;;;;;;;24.35;14.52;;;;;;;;;;4832202;29;20049;-76
2021/12/05 18:21:15;;;;;;;22.05;14.57;;;;;;;;;;4830993;29;20038;-77
2021/12/05 18:23:41;;;;;;;24.30;15.82;;;;;;;;;;4829273;29;20029;-77
2021/12/05 18:26:08;;;;;;;26.83;17.75;;;;;;;;;;4826635;29;20035;-76
2021/12/05 18:28:35;;;;;;;29.23;20.30;;;;;;;;;;4828902;29;20609;-77
2021/12/05 18:31:01;;;;;;;33.53;22.95;;;;;;;;;;4834264;29;20379;-77
2021/12/05 18:33:29;;;;;;;35.15;21.98;;;;;;;;;;4837606;29;20130;-77
2021/12/05 18:35:56;;;;;;;41.15;26.95;;;;;;;;;;4838386;29;20030;-77
2021/12/05 18:38:24;;;;;;;48.53;31.42;;;;;;;;;;4822770;29;20042;-76
2021/12/05 18:40:52;;;;;;;40.80;24.50;;;;;;;;;;4828147;29;20026;-76
2021/12/05 18:43:22;;;;;;;32.67;21.88;;;;;;;;;;4833462;29;20588;-76
2021/12/05 18:45:48;;;;;;;26.33;16.98;;;;;;;;;;4834621;29;20052;-77
2021/12/05 18:48:15;;;;;;;34.92;21.75;;;;;;;;;;4838700;29;20121;-76
2021/12/05 18:50:43;;;;;;;28.13;19.13;;;;;;;;;;4826195;29;20034;-76
2021/12/05 18:53:12;;;;;;;27.10;17.92;;;;;;;;;;4828891;29;20046;-77
2021/12/05 18:55:38;;;;;;;23.48;15.55;;;;;;;;;;4820453;29;20030;-76
2021/12/05 18:58:09;;;;;;;34.40;20.67;;;;;;;;;;4830523;29;20400;-76
2021/12/05 19:04:21;;;;;;;70.45;38.47;;;;;;;;;;4834675;29;20045;-77
2021/12/05 19:06:15;;;;;;;40.92;24.33;;;;;;;;;;4822916;29;20068;-76
2021/12/05 19:09:08;;;;;;;30.65;19.00;;;;;;;;;;4835391;29;20041;-76
2021/12/05 19:11:47;;;;;;;66.68;35.30;;;;;;;;;;4827801;29;20114;-77
2021/12/05 19:14:18;;;;;;;54.17;29.17;;;;;;;;;;4837563;29;20057;-77
2021/12/05 19:16:48;;;;;;;48.88;26.35;;;;;;;;;;4837581;29;20392;-77
2021/12/05 19:19:15;;;;;;;72.55;38.40;;;;;;;;;;4836477;29;20044;-76
2021/12/05 19:21:41;;;;;;;56.25;31.02;;;;;;;;;;4835950;29;20041;-76
2021/12/05 19:24:08;;;;;;;48.30;25.77;;;;;;;;;;4832304;29;20386;-76
2021/12/05 19:26:34;;;;;;;37.17;23.08;;;;;;;;;;4834329;29;20413;-77
2021/12/05 19:29:00;;;;;;;32.92;22.60;;;;;;;;;;4831627;29;20499;-76
2021/12/05 19:31:27;;;;;;;29.27;20.15;;;;;;;;;;4838331;29;20072;-77
2021/12/05 19:33:53;;;;;;;37.10;22.90;;;;;;;;;;4824893;29;20038;-77
2021/12/05 19:36:21;;;;;;;30.67;19.15;;;;;;;;;;4836220;29;20556;-77
2021/12/05 19:38:47;;;;;;;39.22;25.85;;;;;;;;;;4837468;29;20540;-77
2021/12/05 19:41:14;;;;;;;37.58;23.38;;;;;;;;;;4838274;29;20037;-77
2021/12/05 19:43:41;;;;;;;28.40;19.13;;;;;;;;;;4829897;29;20073;-76
2021/12/05 19:46:10;;;;;;;32.63;22.52;;;;;;;;;;4841844;29;20034;-76
2021/12/05 19:48:36;;;;;;;36.95;26.60;;;;;;;;;;4835479;29;20030;-76
2021/12/05 19:51:07;;;;;;;30.55;20.98;;;;;;;;;;4823261;29;20389;-77
2021/12/05 19:53:33;;;;;;;45.13;32.45;;;;;;;;;;4821749;29;20504;-76
2021/12/05 19:55:59;;;;;;;43.70;29.48;;;;;;;;;;4833126;29;20119;-76
2021/12/05 19:58:25;;;;;;;40.35;25.90;;;;;;;;;;4831277;29;20074;-77
2021/12/05 20:00:51;;;;;;;44.13;30.50;;;;;;;;;;4830441;29;20145;-76
2021/12/05 20:03:17;;;;;;;40.45;29.38;;;;;;;;;;4837076;29;20132;-76
2021/12/05 20:05:43;;;;;;;41.60;28.63;;;;;;;;;;4838225;29;20376;-76
2021/12/05 20:08:10;;;;;;;49.67;33.22;;;;;;;;;;4824997;29;20039;-76
2021/12/05 20:10:37;;;;;;;51.00;34.65;;;;;;;;;;4831359;29;20457;-77
2021/12/05 20:13:04;;;;;;;41.63;27.73;;;;;;;;;;4829635;29;20129;-76
2021/12/05 20:15:30;;;;;;;37.60;25.08;;;;;;;;;;4838488;29;20065;-77
2021/12/05 20:17:57;;;;;;;48.78;33.17;;;;;;;;;;4825504;29;20049;-77
2021/12/05 20:20:23;;;;;;;42.17;28.60;;;;;;;;;;4830593;29;20034;-76
2021/12/05 20:22:50;;;;;;;45.22;32.15;;;;;;;;;;4838304;29;20104;-76
2021/12/05 20:25:17;;;;;;;39.50;23.98;;;;;;;;;;4837238;29;20601;-76
2021/12/05 20:27:44;;;;;;;21.73;15.45;;;;;;;;;;4838548;29;20046;-77